Agat, Guam
Current Conditions -  °F | °C
As of 4:54 PM on Friday 28 Nov 2014 (Local Time) from PGUM Reporting Station
Haze Haze  
Wind Chill: 83°   Ceiling: 3600
Heat Index: 90°   Visibility: 5mi
Dew Point: 75°   Wind: 18mph
Humidity: 77%   Direction: 80°E
Pressure: 29.85"   Gusts: 22mph
Location:  13.38°N, 144.65°E
Report Text: PGUM 280654Z 08016G19KT 5SM HZ FEW023 BKN036 OVC044 28/24 A2985 RMK AO2 SLP099 T02830239
Loading
Personal Weather Stations






























Interactive Weather Map New forecast layout! Learn more

10-Day Weather Forecast

Advertisements
Track Severe Weather on mobile